Time;durP1;ratioP1;P1;durP2;ratioP2;P2;SDS_P1;SDS_P2;PMS_P1;PMS_P2;Temp;Humidity;BMP_temperature;BMP_pressure;BME280_temperature;BME280_humidity;BME280_pressure;Samples;Min_cycle;Max_cycle;Signal;HPM_P1;HPM_P2
2023/06/21 00:00:15;;;;;;;9.55;8.65;;;;;;;19.02;100.00;101160.81;5265878;28;20385;-70
2023/06/21 00:02:47;;;;;;;8.77;7.88;;;;;;;19.04;100.00;101159.63;5268552;28;20028;-69
2023/06/21 00:05:18;;;;;;;9.75;8.75;;;;;;;19.05;100.00;101155.88;5267935;28;20039;-69
2023/06/21 00:07:52;;;;;;;9.45;8.52;;;;;;;19.06;100.00;101160.25;5266778;28;20020;-69
2023/06/21 00:10:24;;;;;;;10.38;9.27;;;;;;;19.05;100.00;101163.16;5265032;28;20029;-70
2023/06/21 00:12:56;;;;;;;9.90;9.00;;;;;;;19.02;100.00;101169.78;5265209;28;20115;-70
2023/06/21 00:15:27;;;;;;;10.13;9.13;;;;;;;18.97;100.00;101168.66;5268191;28;20062;-69
2023/06/21 00:17:59;;;;;;;9.60;8.60;;;;;;;19.01;100.00;101169.97;5269808;28;20054;-70
2023/06/21 00:20:30;;;;;;;9.07;8.15;;;;;;;19.03;100.00;101176.84;5267664;28;20024;-70
2023/06/21 00:23:02;;;;;;;9.93;8.95;;;;;;;18.95;100.00;101181.53;5267639;28;20103;-70
2023/06/21 00:25:35;;;;;;;9.60;8.68;;;;;;;18.96;100.00;101167.84;5275034;28;20048;-70
2023/06/21 00:28:06;;;;;;;10.27;9.38;;;;;;;18.92;100.00;101180.06;5265425;28;20664;-70
2023/06/21 00:30:37;;;;;;;10.35;9.18;;;;;;;18.89;100.00;101173.16;5268402;28;20032;-69
2023/06/21 00:33:08;;;;;;;10.65;9.63;;;;;;;18.93;100.00;101173.63;5262006;28;20124;-70
2023/06/21 00:35:40;;;;;;;10.25;9.35;;;;;;;18.86;100.00;101175.41;5269288;28;20028;-69
2023/06/21 00:38:12;;;;;;;10.68;9.68;;;;;;;18.91;100.00;101178.38;5271126;28;20121;-69
2023/06/21 00:40:44;;;;;;;10.57;9.65;;;;;;;18.93;100.00;101180.88;5265047;28;20043;-69
2023/06/21 00:43:16;;;;;;;11.05;10.00;;;;;;;18.89;100.00;101183.97;5267834;28;20769;-69
2023/06/21 00:45:48;;;;;;;11.70;10.50;;;;;;;18.96;100.00;101188.63;5267761;28;20024;-69
2023/06/21 00:48:19;;;;;;;11.93;10.63;;;;;;;18.91;100.00;101186.47;5264911;28;20032;-69
2023/06/21 00:50:50;;;;;;;11.65;10.35;;;;;;;18.88;100.00;101184.16;5270675;28;20035;-69
2023/06/21 00:53:23;;;;;;;11.63;10.50;;;;;;;18.86;100.00;101188.91;5266544;28;20039;-69
2023/06/21 00:55:56;;;;;;;12.35;10.32;;;;;;;18.88;100.00;101189.56;5270072;28;20025;-69
2023/06/21 00:58:28;;;;;;;11.25;10.13;;;;;;;18.93;100.00;101187.13;5276089;28;20032;-69
2023/06/21 01:00:59;;;;;;;11.52;9.85;;;;;;;18.93;100.00;101189.00;5279093;28;20085;-70
2023/06/21 01:03:31;;;;;;;11.93;10.82;;;;;;;18.93;100.00;101191.69;5276523;28;20723;-69
2023/06/21 01:06:22;;;;;;;11.35;10.23;;;;;;;18.95;100.00;101192.34;5273071;28;20040;-68
2023/06/21 01:09:01;;;;;;;11.55;10.32;;;;;;;18.92;100.00;101188.16;5278212;28;20114;-69
2023/06/21 01:11:58;;;;;;;11.63;10.52;;;;;;;18.97;100.00;101198.41;5273847;28;20032;-68
2023/06/21 01:14:50;;;;;;;12.13;10.13;;;;;;;18.93;100.00;101192.53;5273785;28;20135;-69
2023/06/21 01:17:22;;;;;;;12.80;10.90;;;;;;;18.92;100.00;101188.16;5272601;28;20044;-69
2023/06/21 01:19:56;;;;;;;12.18;10.65;;;;;;;18.89;100.00;101186.66;5270967;28;20023;-69
2023/06/21 01:22:48;;;;;;;12.02;10.82;;;;;;;18.87;100.00;101188.72;5275114;28;20029;-69
2023/06/21 01:25:41;;;;;;;12.65;10.35;;;;;;;18.90;100.00;101192.94;5275412;28;20086;-69
2023/06/21 01:28:39;;;;;;;12.18;10.98;;;;;;;18.89;100.00;101202.06;5272642;28;20556;-70
2023/06/21 01:31:16;;;;;;;11.23;10.20;;;;;;;18.87;100.00;101198.72;5274764;28;20077;-69
2023/06/21 01:33:49;;;;;;;10.98;9.98;;;;;;;18.86;100.00;101197.88;5270821;28;20028;-69
2023/06/21 01:36:22;;;;;;;13.40;10.57;;;;;;;18.82;100.00;101204.66;5280932;28;20035;-69
2023/06/21 01:38:56;;;;;;;11.35;10.10;;;;;;;18.79;100.00;101199.59;5272183;28;20425;-70
2023/06/21 01:41:28;;;;;;;11.73;10.63;;;;;;;18.81;100.00;101208.38;5273058;28;20036;-70
2023/06/21 01:44:07;;;;;;;11.77;10.75;;;;;;;18.77;100.00;101206.22;5276211;28;20052;-70
2023/06/21 01:46:39;;;;;;;11.27;10.27;;;;;;;18.83;100.00;101208.22;5273194;28;20102;-70
2023/06/21 01:49:13;;;;;;;11.77;10.68;;;;;;;18.73;100.00;101200.38;5272648;28;20087;-70
2023/06/21 01:51:44;;;;;;;12.02;10.82;;;;;;;18.75;100.00;101202.88;5273874;28;20459;-69
2023/06/21 01:54:17;;;;;;;11.80;10.80;;;;;;;18.70;100.00;101204.25;5269540;28;20154;-70
2023/06/21 01:56:50;;;;;;;12.23;11.07;;;;;;;18.67;100.00;101207.38;5275610;28;20390;-70
2023/06/21 01:59:22;;;;;;;12.15;10.90;;;;;;;18.73;100.00;101213.88;5274540;28;20032;-70
2023/06/21 02:01:56;;;;;;;11.23;10.13;;;;;;;18.66;100.00;101216.47;5270404;28;20098;-69
2023/06/21 02:04:29;;;;;;;11.65;10.38;;;;;;;18.65;100.00;101213.97;5275671;28;20302;-69
2023/06/21 02:07:02;;;;;;;13.48;10.55;;;;;;;18.69;100.00;101216.13;5277352;28;20055;-69
2023/06/21 02:09:33;;;;;;;11.98;10.88;;;;;;;18.67;100.00;101226.28;5269433;28;20031;-69
2023/06/21 02:12:06;;;;;;;12.70;11.38;;;;;;;18.69;100.00;101226.91;5273277;28;20040;-69
2023/06/21 02:14:40;;;;;;;12.75;11.52;;;;;;;18.63;100.00;101218.72;5270958;28;20035;-69
2023/06/21 02:17:11;;;;;;;12.52;11.27;;;;;;;18.61;100.00;101227.00;5276966;28;20556;-70
2023/06/21 02:19:43;;;;;;;14.60;11.13;;;;;;;18.58;100.00;101229.25;5269235;28;20034;-70
2023/06/21 02:22:15;;;;;;;14.15;10.98;;;;;;;18.61;100.00;101232.41;5272612;28;20032;-69
2023/06/21 02:24:47;;;;;;;12.18;10.95;;;;;;;18.59;100.00;101241.72;5269061;28;20529;-68
2023/06/21 02:27:18;;;;;;;12.90;11.57;;;;;;;18.56;100.00;101248.34;5265887;28;20487;-70
2023/06/21 02:29:49;;;;;;;13.07;11.82;;;;;;;18.49;100.00;101244.69;5271605;28;20089;-70
2023/06/21 02:32:20;;;;;;;12.90;11.70;;;;;;;18.51;100.00;101239.94;5266651;28;20059;-70
2023/06/21 02:34:52;;;;;;;12.40;11.18;;;;;;;18.49;100.00;101253.63;5273484;28;20119;-70
2023/06/21 02:37:23;;;;;;;12.43;11.27;;;;;;;18.53;100.00;101259.53;5274626;28;20039;-72
2023/06/21 02:39:58;;;;;;;12.05;10.85;;;;;;;18.46;100.00;101262.13;5273610;28;20107;-72
2023/06/21 02:42:29;;;;;;;12.13;10.93;;;;;;;18.47;100.00;101257.56;5274876;28;20131;-71
2023/06/21 02:45:01;;;;;;;13.45;12.05;;;;;;;18.43;100.00;101259.78;5272364;28;20028;-70
2023/06/21 02:47:32;;;;;;;15.25;13.45;;;;;;;18.43;100.00;101258.94;5275092;28;20790;-70
2023/06/21 02:50:04;;;;;;;16.13;14.73;;;;;;;18.46;100.00;101267.53;5271240;28;20024;-71
2023/06/21 02:52:36;;;;;;;13.85;12.55;;;;;;;18.44;100.00;101256.06;5270763;28;20564;-70
2023/06/21 02:55:08;;;;;;;14.18;12.82;;;;;;;18.42;100.00;101276.16;5263593;28;20024;-67
2023/06/21 02:57:39;;;;;;;13.40;12.00;;;;;;;18.46;100.00;101272.06;5274463;28;20422;-68
2023/06/21 03:00:19;;;;;;;12.68;11.60;;;;;;;18.38;100.00;101274.88;5270537;28;20064;-67
2023/06/21 03:02:50;;;;;;;12.65;11.50;;;;;;;18.38;100.00;101274.88;5267344;28;20028;-66
2023/06/21 03:05:21;;;;;;;14.77;12.50;;;;;;;18.35;100.00;101286.03;5270789;28;20455;-66
2023/06/21 03:07:53;;;;;;;12.88;11.65;;;;;;;18.39;100.00;101290.03;5279603;28;20069;-68
2023/06/21 03:10:25;;;;;;;13.50;12.10;;;;;;;18.25;100.00;101299.78;5277950;28;21224;-67
2023/06/21 03:12:56;;;;;;;13.07;11.85;;;;;;;18.27;100.00;101306.69;5271672;28;20024;-67
2023/06/21 03:15:28;;;;;;;13.30;11.57;;;;;;;18.32;100.00;101306.97;5271938;28;20102;-68
2023/06/21 03:18:00;;;;;;;12.85;11.68;;;;;;;18.30;100.00;101308.16;5272039;28;20056;-67
2023/06/21 03:20:31;;;;;;;13.10;11.80;;;;;;;18.28;100.00;101313.75;5267265;28;20024;-67
2023/06/21 03:23:03;;;;;;;13.02;11.68;;;;;;;18.35;100.00;101324.66;5277061;28;20262;-67
2023/06/21 03:25:34;;;;;;;13.40;11.80;;;;;;;18.25;100.00;101324.94;5278274;28;20449;-68
2023/06/21 03:28:06;;;;;;;13.45;12.25;;;;;;;18.29;100.00;101317.31;5267123;28;20151;-67
2023/06/21 03:30:37;;;;;;;14.38;12.98;;;;;;;18.25;100.00;101314.13;5273228;28;20024;-67
2023/06/21 03:33:09;;;;;;;14.00;12.68;;;;;;;18.38;100.00;101316.22;5265730;28;21016;-68
2023/06/21 03:35:41;;;;;;;13.82;12.35;;;;;;;18.32;100.00;101316.94;5266839;28;20466;-68
2023/06/21 03:38:12;;;;;;;14.35;13.07;;;;;;;18.41;100.00;101317.72;5262289;28;20033;-68
2023/06/21 03:40:43;;;;;;;13.73;12.32;;;;;;;18.48;100.00;101319.50;5268453;28;20038;-68
2023/06/21 03:43:15;;;;;;;14.25;12.85;;;;;;;18.40;100.00;101308.75;5271837;28;20094;-69
2023/06/21 03:45:46;;;;;;;14.48;12.77;;;;;;;18.39;100.00;101314.34;5268544;28;20066;-67
2023/06/21 03:48:18;;;;;;;13.65;12.43;;;;;;;18.45;100.00;101300.13;5262559;28;20054;-70
2023/06/21 03:50:49;;;;;;;14.23;12.90;;;;;;;18.52;100.00;101309.16;5273206;28;20453;-70
2023/06/21 03:53:20;;;;;;;14.18;12.85;;;;;;;18.53;100.00;101313.56;5266387;28;20604;-67
2023/06/21 03:55:52;;;;;;;13.95;12.68;;;;;;;18.59;100.00;101309.28;5265811;28;20570;-68
2023/06/21 03:58:24;;;;;;;14.63;13.15;;;;;;;18.66;100.00;101321.00;5273673;28;20043;-68
2023/06/21 04:00:55;;;;;;;15.30;13.77;;;;;;;18.66;100.00;101321.84;5271237;28;20028;-68
2023/06/21 04:03:26;;;;;;;15.52;14.00;;;;;;;18.66;100.00;101321.84;5276355;28;20506;-67
2023/06/21 04:05:58;;;;;;;15.68;14.10;;;;;;;18.61;100.00;101323.44;5269024;28;20041;-67
2023/06/21 04:08:29;;;;;;;16.13;14.10;;;;;;;18.61;100.00;101337.75;5269463;28;20039;-67
2023/06/21 04:11:00;;;;;;;15.55;13.93;;;;;;;18.66;100.00;101332.66;5271930;28;20437;-69
2023/06/21 04:13:32;;;;;;;16.15;14.45;;;;;;;18.65;100.00;101343.63;5266550;28;20103;-68
2023/06/21 04:16:03;;;;;;;16.40;14.15;;;;;;;18.70;100.00;101344.75;5268623;28;20048;-69
2023/06/21 04:18:35;;;;;;;16.17;14.68;;;;;;;18.62;100.00;101358.38;5270957;28;20024;-67
2023/06/21 04:21:06;;;;;;;15.10;13.65;;;;;;;18.74;100.00;101355.22;5268620;28;20051;-67
2023/06/21 04:23:37;;;;;;;18.02;15.02;;;;;;;18.74;100.00;101361.47;5268771;28;20024;-69
2023/06/21 04:26:08;;;;;;;15.60;14.18;;;;;;;18.75;100.00;101368.53;5267023;28;20059;-67
2023/06/21 04:28:40;;;;;;;18.52;14.13;;;;;;;18.76;100.00;101364.81;5265880;28;20579;-68
2023/06/21 04:31:11;;;;;;;16.27;14.77;;;;;;;18.79;100.00;101367.13;5270141;28;20803;-68
2023/06/21 04:33:42;;;;;;;16.80;15.10;;;;;;;18.80;100.00;101371.53;5269660;28;20039;-67
2023/06/21 04:36:17;;;;;;;16.10;14.55;;;;;;;18.86;100.00;101378.94;5269560;28;20155;-67
2023/06/21 04:38:50;;;;;;;16.80;14.98;;;;;;;18.86;100.00;101376.25;5272268;28;20147;-68
2023/06/21 04:41:22;;;;;;;15.38;13.95;;;;;;;18.90;100.00;101384.81;5263850;28;20056;-68
2023/06/21 04:43:53;;;;;;;16.08;14.45;;;;;;;18.91;100.00;101381.09;5266114;28;20512;-67
2023/06/21 04:46:27;;;;;;;16.67;15.02;;;;;;;18.89;100.00;101378.56;5268178;28;20032;-67
2023/06/21 04:48:59;;;;;;;16.67;15.18;;;;;;;18.97;100.00;101383.06;5268676;28;20076;-68
2023/06/21 04:51:30;;;;;;;19.30;15.35;;;;;;;18.99;100.00;101372.91;5272241;28;20017;-67
2023/06/21 04:54:02;;;;;;;17.73;15.88;;;;;;;19.02;100.00;101371.66;5264063;28;20040;-67
2023/06/21 04:56:33;;;;;;;16.88;15.32;;;;;;;18.98;100.00;101371.22;5269761;28;20032;-67
2023/06/21 04:59:05;;;;;;;18.05;16.23;;;;;;;19.05;100.00;101372.13;5266272;28;20028;-69
2023/06/21 05:01:36;;;;;;;18.83;16.85;;;;;;;19.13;100.00;101384.75;5262936;28;20047;-67
2023/06/21 05:04:07;;;;;;;17.35;15.77;;;;;;;19.27;100.00;101383.91;5264560;28;20083;-67
2023/06/21 05:06:40;;;;;;;18.55;16.83;;;;;;;19.29;100.00;101383.72;5270241;28;20082;-67
2023/06/21 05:09:11;;;;;;;18.25;16.55;;;;;;;19.35;100.00;101395.66;5268063;28;20429;-68
2023/06/21 05:11:43;;;;;;;18.77;16.88;;;;;;;19.36;100.00;101398.19;5264790;28;20035;-67
2023/06/21 05:14:14;;;;;;;19.05;17.20;;;;;;;19.34;100.00;101402.94;5266641;28;20039;-67
2023/06/21 05:16:46;;;;;;;18.92;17.13;;;;;;;19.46;100.00;101401.44;5268805;28;20544;-68
2023/06/21 05:19:18;;;;;;;18.38;16.23;;;;;;;19.60;100.00;101399.75;5266328;28;20616;-68
2023/06/21 05:21:49;;;;;;;18.95;17.08;;;;;;;19.68;100.00;101404.22;5263970;28;20576;-68
2023/06/21 05:24:20;;;;;;;18.55;16.75;;;;;;;19.85;100.00;101409.44;5267718;28;20028;-68
2023/06/21 05:26:51;;;;;;;19.45;17.55;;;;;;;19.88;100.00;101419.88;5266510;28;20618;-69
2023/06/21 05:29:24;;;;;;;17.10;15.38;;;;;;;19.95;100.00;101426.22;5267551;28;22531;-69
2023/06/21 05:31:55;;;;;;;18.73;16.88;;;;;;;19.92;100.00;101424.72;5266281;28;20180;-67
2023/06/21 05:34:28;;;;;;;18.42;16.45;;;;;;;20.00;100.00;101421.06;5268629;28;20409;-68
2023/06/21 05:36:59;;;;;;;19.30;17.30;;;;;;;19.93;100.00;101418.31;5263653;28;20446;-67
2023/06/21 05:39:31;;;;;;;19.90;18.02;;;;;;;19.89;100.00;101418.84;5267621;28;20058;-67
2023/06/21 05:42:02;;;;;;;18.55;16.85;;;;;;;20.04;100.00;101422.38;5273864;28;20673;-67
2023/06/21 05:44:33;;;;;;;17.88;16.15;;;;;;;20.02;100.00;101421.69;5275950;28;20031;-67
2023/06/21 05:47:05;;;;;;;17.92;16.23;;;;;;;20.09;100.00;101427.19;5275114;28;20492;-67
2023/06/21 05:49:36;;;;;;;18.08;16.40;;;;;;;20.16;100.00;101431.69;5270628;28;20032;-69
2023/06/21 05:52:07;;;;;;;20.92;18.83;;;;;;;20.15;100.00;101437.28;5273379;28;20043;-68
2023/06/21 05:54:41;;;;;;;17.70;16.10;;;;;;;20.28;100.00;101442.00;5272827;28;20028;-69
2023/06/21 05:57:13;;;;;;;19.25;17.15;;;;;;;20.40;100.00;101448.59;5271180;28;21124;-68
2023/06/21 05:59:44;;;;;;;18.27;16.55;;;;;;;20.35;100.00;101454.59;5269296;28;20024;-67
2023/06/21 06:02:16;;;;;;;19.27;17.40;;;;;;;20.43;100.00;101461.75;5271235;28;20595;-68
2023/06/21 06:04:48;;;;;;;18.83;16.60;;;;;;;20.57;100.00;101465.44;5276108;28;20040;-67
2023/06/21 06:07:19;;;;;;;19.25;17.55;;;;;;;20.52;100.00;101459.75;5268238;28;20064;-75
2023/06/21 06:09:50;;;;;;;18.88;17.02;;;;;;;20.63;100.00;101463.84;5275857;28;20023;-79
2023/06/21 06:12:22;;;;;;;19.95;17.80;;;;;;;20.69;100.00;101472.03;5274225;28;21206;-79
2023/06/21 06:14:53;;;;;;;19.73;17.80;;;;;;;20.81;100.00;101456.09;5274636;28;20320;-79
2023/06/21 06:17:24;;;;;;;18.98;17.10;;;;;;;20.93;100.00;101459.97;5278037;28;20161;-79
2023/06/21 06:19:56;;;;;;;18.40;16.67;;;;;;;21.00;100.00;101465.41;5268902;28;20111;-79
2023/06/21 06:22:27;;;;;;;18.35;16.60;;;;;;;21.10;100.00;101467.78;5267909;28;20566;-80
2023/06/21 06:24:59;;;;;;;17.63;16.13;;;;;;;21.23;100.00;101470.63;5271538;28;20039;-79
2023/06/21 06:27:30;;;;;;;16.38;14.77;;;;;;;21.43;100.00;101480.75;5274235;28;20031;-79
2023/06/21 06:30:02;;;;;;;16.65;15.07;;;;;;;21.47;100.00;101482.06;5274133;28;20023;-80
2023/06/21 06:32:33;;;;;;;17.17;15.38;;;;;;;21.60;100.00;101484.88;5278890;28;20089;-79
2023/06/21 06:35:06;;;;;;;16.23;14.70;;;;;;;21.95;100.00;101486.69;5270434;28;20455;-79
2023/06/21 06:37:37;;;;;;;16.75;15.15;;;;;;;22.13;100.00;101497.84;5272533;28;20028;-77
2023/06/21 06:40:09;;;;;;;13.40;12.10;;;;;;;22.25;100.00;101496.22;5279025;28;20063;-78
2023/06/21 06:42:41;;;;;;;11.23;10.13;;;;;;;22.33;100.00;101497.94;5275236;28;20035;-77
2023/06/21 06:45:12;;;;;;;10.55;9.52;;;;;;;22.52;100.00;101503.66;5270668;28;20075;-77
2023/06/21 06:47:43;;;;;;;10.85;9.77;;;;;;;22.48;100.00;101508.66;5271192;28;20028;-77
2023/06/21 06:50:14;;;;;;;11.38;10.18;;;;;;;22.43;100.00;101509.25;5270740;28;20660;-77
2023/06/21 06:52:48;;;;;;;11.57;9.87;;;;;;;22.50;100.00;101520.16;5266778;28;20559;-77
2023/06/21 06:55:19;;;;;;;11.00;9.73;;;;;;;22.72;100.00;101523.56;5265798;28;20297;-77
2023/06/21 06:57:50;;;;;;;10.15;9.18;;;;;;;22.64;100.00;101521.84;5269228;28;20032;-78
2023/06/21 07:00:22;;;;;;;9.18;8.15;;;;;;;22.69;100.00;101528.59;5271159;28;20357;-77
2023/06/21 07:02:56;;;;;;;7.57;6.88;;;;;;;22.66;100.00;101521.66;5270621;28;20036;-78
2023/06/21 07:05:27;;;;;;;9.35;7.95;;;;;;;22.74;100.00;101528.78;5272604;28;20591;-77
2023/06/21 07:07:59;;;;;;;8.20;7.50;;;;;;;22.65;100.00;101530.84;5276923;28;20028;-77
2023/06/21 07:10:30;;;;;;;8.93;8.02;;;;;;;22.81;100.00;101533.19;5268731;28;20546;-77
2023/06/21 07:13:02;;;;;;;9.27;8.38;;;;;;;23.19;100.00;101534.50;5276868;28;20077;-78
2023/06/21 07:15:33;;;;;;;10.93;9.82;;;;;;;23.41;100.00;101532.41;5267933;28;21051;-76
2023/06/21 07:18:05;;;;;;;10.57;9.48;;;;;;;23.70;100.00;101527.53;5273136;28;20036;-77
2023/06/21 07:20:36;;;;;;;12.02;10.73;;;;;;;23.89;100.00;101537.56;5269837;28;20039;-77
2023/06/21 07:23:08;;;;;;;12.73;11.50;;;;;;;23.85;100.00;101535.50;5270866;28;20075;-77
2023/06/21 07:25:39;;;;;;;12.88;11.68;;;;;;;23.97;100.00;101528.31;5267778;28;20125;-76
2023/06/21 07:28:10;;;;;;;12.45;11.15;;;;;;;23.96;100.00;101527.47;5270365;28;20758;-77
2023/06/21 07:30:42;;;;;;;12.98;11.68;;;;;;;24.06;100.00;101528.94;5270591;28;20079;-77
2023/06/21 07:33:13;;;;;;;12.15;10.90;;;;;;;24.30;100.00;101530.91;5264741;28;20033;-77
2023/06/21 07:35:44;;;;;;;13.60;11.45;;;;;;;24.60;100.00;101524.06;5267316;28;20497;-77
2023/06/21 07:38:16;;;;;;;11.65;10.55;;;;;;;24.66;100.00;101529.47;5275610;28;20363;-76
2023/06/21 07:40:47;;;;;;;11.10;8.63;;;;;;;24.93;100.00;101534.75;5265695;28;20569;-78
2023/06/21 07:43:20;;;;;;;8.85;7.95;;;;;;;25.25;100.00;101549.22;5271341;28;20027;-78
2023/06/21 07:45:51;;;;;;;8.50;7.72;;;;;;;25.37;100.00;101546.59;5269930;28;20046;-77
2023/06/21 07:48:22;;;;;;;7.55;6.80;;;;;;;25.56;100.00;101557.53;5269728;28;20680;-77
2023/06/21 07:50:54;;;;;;;8.23;7.45;;;;;;;25.38;100.00;101548.25;5265161;28;20075;-77
2023/06/21 07:53:25;;;;;;;9.33;7.37;;;;;;;25.44;100.00;101555.56;5263326;28;20063;-77
2023/06/21 07:55:57;;;;;;;9.48;8.57;;;;;;;25.65;100.00;101553.47;5274128;28;20635;-77
2023/06/21 07:58:29;;;;;;;11.88;8.70;;;;;;;25.83;100.00;101548.00;5269432;28;20093;-78
2023/06/21 08:01:00;;;;;;;9.88;8.68;;;;;;;25.93;100.00;101544.75;5273995;28;20031;-77
2023/06/21 08:03:31;;;;;;;12.10;9.10;;;;;;;26.17;100.00;101553.94;5268267;28;20073;-78
2023/06/21 08:06:03;;;;;;;7.57;6.87;;;;;;;26.19;100.00;101559.19;5267566;28;20028;-77
2023/06/21 08:08:34;;;;;;;8.60;7.68;;;;;;;26.12;100.00;101559.28;5271400;28;20286;-77
2023/06/21 08:11:05;;;;;;;7.07;6.40;;;;;;;26.60;100.00;101563.06;5270136;28;20561;-78
2023/06/21 08:13:36;;;;;;;7.27;6.50;;;;;;;26.89;100.00;101563.31;5267405;28;20542;-77
2023/06/21 08:16:08;;;;;;;7.80;7.00;;;;;;;27.10;100.00;101567.41;5274421;28;20294;-78
2023/06/21 08:18:39;;;;;;;6.40;5.80;;;;;;;27.27;100.00;101567.56;5271605;28;20159;-77
2023/06/21 08:21:10;;;;;;;6.32;5.05;;;;;;;27.39;100.00;101570.34;5268316;28;20221;-78
2023/06/21 08:23:41;;;;;;;5.83;5.23;;;;;;;27.67;100.00;101572.34;5267552;28;20116;-79
2023/06/21 08:26:13;;;;;;;6.47;5.43;;;;;;;27.83;100.00;101571.63;5268696;28;20286;-78
2023/06/21 08:28:45;;;;;;;5.60;4.50;;;;;;;28.06;100.00;101569.94;5273596;28;20174;-78
2023/06/21 08:31:16;;;;;;;5.60;4.95;;;;;;;28.24;100.00;101569.78;5277320;28;20050;-78
2023/06/21 08:33:48;;;;;;;7.60;5.20;;;;;;;28.27;100.00;101572.03;5274694;28;20037;-77
2023/06/21 08:36:19;;;;;;;6.57;5.45;;;;;;;28.49;100.00;101568.63;5278173;28;20051;-77
2023/06/21 08:38:50;;;;;;;6.60;5.28;;;;;;;28.40;100.00;101561.84;5272141;28;20024;-78
2023/06/21 08:41:22;;;;;;;8.20;6.03;;;;;;;28.51;100.00;101563.72;5269953;28;20028;-78
2023/06/21 08:43:53;;;;;;;5.93;5.30;;;;;;;28.31;100.00;101568.81;5273009;28;20321;-78
2023/06/21 08:46:25;;;;;;;6.05;5.55;;;;;;;28.49;100.00;101565.88;5275793;28;20111;-78
2023/06/21 08:49:00;;;;;;;5.30;4.65;;;;;;;28.88;100.00;101566.06;5277882;28;20058;-79
2023/06/21 08:51:36;;;;;;;6.43;5.72;;;;;;;28.87;100.00;101575.38;5275050;28;20036;-79
2023/06/21 08:54:09;;;;;;;6.15;5.55;;;;;;;28.98;100.00;101569.00;5266942;28;20396;-79
2023/06/21 08:57:13;;;;;;;5.78;5.28;;;;;;;29.21;100.00;101567.22;5274891;28;20143;-79
2023/06/21 08:59:56;;;;;;;6.55;5.95;;;;;;;29.52;100.00;101578.66;5264801;28;20048;-78
2023/06/21 09:02:45;;;;;;;6.57;5.47;;;;;;;29.91;100.00;101571.28;5271349;28;20085;-78
2023/06/21 09:05:29;;;;;;;6.47;3.70;;;;;;;29.88;100.00;101582.78;5265684;28;20028;-78
2023/06/21 09:08:02;;;;;;;5.45;4.95;;;;;;;29.84;100.00;101575.28;5273729;28;20024;-78
2023/06/21 09:10:36;;;;;;;5.80;4.70;;;;;;;29.92;100.00;101574.84;5273470;28;20060;-78
2023/06/21 09:13:09;;;;;;;4.10;3.63;;;;;;;30.02;100.00;101568.66;5271150;28;20044;-78
2023/06/21 09:15:41;;;;;;;3.20;2.42;;;;;;;30.59;100.00;101582.00;5271865;28;20067;-78
2023/06/21 09:18:12;;;;;;;2.92;2.53;;;;;;;30.57;100.00;101581.44;5272101;28;20083;-78
2023/06/21 09:20:47;;;;;;;3.47;2.97;;;;;;;30.60;100.00;101585.59;5276619;28;20063;-77
2023/06/21 09:23:18;;;;;;;3.78;3.20;;;;;;;30.34;100.00;101588.03;5268267;28;20086;-78
2023/06/21 09:25:50;;;;;;;6.43;3.83;;;;;;;29.87;100.00;101597.59;5270168;28;20317;-78
2023/06/21 09:28:22;;;;;;;5.95;3.92;;;;;;;30.00;100.00;101595.56;5274772;28;20035;-78
2023/06/21 09:30:53;;;;;;;5.57;3.25;;;;;;;29.94;100.00;101586.44;5274386;28;20035;-78
2023/06/21 09:33:25;;;;;;;3.60;2.53;;;;;;;30.14;100.00;101592.19;5272353;28;20032;-77
2023/06/21 09:35:57;;;;;;;4.13;1.70;;;;;;;30.41;100.00;101590.63;5266702;28;20791;-77
2023/06/21 09:38:33;;;;;;;2.97;2.08;;;;;;;30.73;100.00;101593.44;5268986;28;20046;-78
2023/06/21 09:41:06;;;;;;;2.88;2.40;;;;;;;30.82;100.00;101600.16;5280530;28;20036;-78
2023/06/21 09:43:44;;;;;;;3.70;2.30;;;;;;;31.23;100.00;101594.19;5282450;28;20032;-78
2023/06/21 09:46:16;;;;;;;2.85;2.40;;;;;;;31.22;100.00;101595.28;5274343;28;20501;-79
2023/06/21 09:48:47;;;;;;;4.10;2.38;;;;;;;31.43;100.00;101593.50;5275889;28;20040;-78
2023/06/21 09:51:23;;;;;;;4.00;3.10;;;;;;;31.37;100.00;101595.41;5277105;28;20028;-78
2023/06/21 09:53:55;;;;;;;4.18;3.78;;;;;;;30.95;100.00;101587.91;5274892;28;20039;-78
2023/06/21 09:56:26;;;;;;;9.70;4.30;;;;;;;30.94;100.00;101582.66;5266910;28;20401;-79
2023/06/21 09:58:57;;;;;;;8.25;3.45;;;;;;;31.22;100.00;101584.25;5276790;28;20508;-79
2023/06/21 10:01:37;;;;;;;4.78;2.60;;;;;;;31.31;100.00;101590.94;5279681;28;20024;-78
2023/06/21 10:04:10;;;;;;;2.92;2.25;;;;;;;31.54;98.18;101606.31;5277829;28;20105;-75
2023/06/21 10:06:54;;;;;;;4.30;1.83;;;;;;;32.26;96.47;101609.50;5275393;28;20025;-77
2023/06/21 10:09:25;;;;;;;2.85;2.50;;;;;;;32.13;87.13;101602.53;5271157;28;20394;-77
2023/06/21 10:11:58;;;;;;;3.92;2.42;;;;;;;32.69;90.16;101612.94;5273256;28;20047;-77
2023/06/21 10:14:31;;;;;;;5.07;2.55;;;;;;;32.88;91.93;101612.44;5274867;28;20516;-77
2023/06/21 10:17:02;;;;;;;2.75;2.17;;;;;;;32.29;92.23;101619.97;5271297;28;20028;-78
2023/06/21 10:19:35;;;;;;;3.30;3.00;;;;;;;31.55;89.62;101629.19;5272276;28;20478;-77
2023/06/21 10:22:08;;;;;;;4.10;3.28;;;;;;;31.78;89.33;101616.94;5269682;28;20024;-77
2023/06/21 10:24:44;;;;;;;3.80;3.50;;;;;;;32.07;93.59;101628.44;5268476;28;20036;-77
2023/06/21 10:27:17;;;;;;;3.88;2.97;;;;;;;32.17;90.93;101628.50;5268695;28;20391;-76
2023/06/21 10:29:56;;;;;;;3.03;2.35;;;;;;;32.34;86.96;101633.78;5272051;28;20028;-77
2023/06/21 10:32:31;;;;;;;2.30;2.10;;;;;;;32.52;83.76;101632.50;5270379;28;20055;-77
2023/06/21 10:35:11;;;;;;;2.60;2.00;;;;;;;32.90;83.05;101627.63;5271972;28;20042;-77
2023/06/21 10:37:48;;;;;;;5.68;2.13;;;;;;;33.01;85.74;101639.50;5269460;28;20119;-77
2023/06/21 10:40:21;;;;;;;4.13;2.65;;;;;;;33.43;83.79;101635.66;5270242;28;20055;-77
2023/06/21 10:42:55;;;;;;;3.97;2.90;;;;;;;33.50;82.53;101641.78;5272765;28;20028;-77
2023/06/21 10:45:29;;;;;;;4.55;3.00;;;;;;;32.95;79.89;101641.44;5266325;28;20020;-77
2023/06/21 10:48:00;;;;;;;3.38;3.08;;;;;;;33.01;81.58;101647.78;5270030;28;20038;-77
2023/06/21 10:50:32;;;;;;;4.47;3.17;;;;;;;33.04;84.68;101652.78;5265455;28;20028;-77
2023/06/21 10:53:05;;;;;;;3.05;2.75;;;;;;;32.48;85.99;101647.91;5270873;28;20250;-77
2023/06/21 10:55:39;;;;;;;5.57;3.50;;;;;;;32.16;85.12;101643.38;5272051;28;20170;-77
2023/06/21 10:58:13;;;;;;;3.77;3.33;;;;;;;32.54;86.95;101638.56;5270876;28;20409;-77
2023/06/21 11:00:47;;;;;;;3.78;3.42;;;;;;;32.20;87.67;101638.97;5269873;28;20417;-78
2023/06/21 11:03:25;;;;;;;4.35;3.60;;;;;;;31.88;87.12;101641.81;5275673;28;20064;-77
2023/06/21 11:06:34;;;;;;;4.68;4.20;;;;;;;31.70;90.54;101659.63;5271707;28;20520;-77
2023/06/21 11:09:11;;;;;;;4.70;3.80;;;;;;;31.67;88.23;101647.19;5272804;28;20036;-77
2023/06/21 11:11:50;;;;;;;4.43;4.10;;;;;;;32.17;86.46;101655.22;5267394;28;20066;-77
2023/06/21 11:14:31;;;;;;;5.00;3.30;;;;;;;32.62;88.47;101648.28;5275604;28;20032;-77
2023/06/21 11:17:15;;;;;;;3.30;2.90;;;;;;;33.03;84.11;101653.91;5269662;28;20101;-77
2023/06/21 11:19:47;;;;;;;2.85;2.33;;;;;;;33.38;79.96;101662.50;5268976;28;20031;-77
2023/06/21 11:22:26;;;;;;;3.30;2.67;;;;;;;33.53;78.81;101651.44;5270952;28;20903;-77
2023/06/21 11:25:00;;;;;;;2.85;2.30;;;;;;;33.97;76.78;101647.25;5272579;28;20031;-77
2023/06/21 11:27:31;;;;;;;2.83;2.40;;;;;;;34.46;75.95;101652.88;5270772;28;20028;-78
2023/06/21 11:30:09;;;;;;;2.53;2.20;;;;;;;34.27;73.27;101654.63;5270822;28;20051;-78
2023/06/21 11:32:55;;;;;;;2.83;2.30;;;;;;;34.26;74.94;101651.03;5269307;28;20067;-77
2023/06/21 11:35:46;;;;;;;3.30;2.85;;;;;;;33.82;75.20;101656.38;5269028;28;20024;-78